sensor_id;sensor_type;location;lat;lon;timestamp;P1;P2;P0
13030;PMS7003;6582;54.644;9.760;2022-08-21T00:00:01;67.2;56.4;
13030;PMS7003;6582;54.644;9.760;2022-08-21T00:05:02;63.0;52.7;
13030;PMS7003;6582;54.644;9.760;2022-08-21T00:10:01;63.7;53.2;
13030;PMS7003;6582;54.644;9.760;2022-08-21T00:15:02;62.9;52.8;
13030;PMS7003;6582;54.644;9.760;2022-08-21T00:20:03;62.5;52.3;
13030;PMS7003;6582;54.644;9.760;2022-08-21T00:25:02;62.8;52.3;
13030;PMS7003;6582;54.644;9.760;2022-08-21T00:30:02;62.6;52.2;
13030;PMS7003;6582;54.644;9.760;2022-08-21T00:35:01;62.7;52.2;
13030;PMS7003;6582;54.644;9.760;2022-08-21T00:40:01;63.6;52.8;
13030;PMS7003;6582;54.644;9.760;2022-08-21T00:45:02;64.4;53.5;
13030;PMS7003;6582;54.644;9.760;2022-08-21T00:50:01;64.8;53.9;
13030;PMS7003;6582;54.644;9.760;2022-08-21T00:55:03;65.6;54.4;
13030;PMS7003;6582;54.644;9.760;2022-08-21T01:00:03;65.8;54.6;
13030;PMS7003;6582;54.644;9.760;2022-08-21T01:05:02;66.5;55.1;
13030;PMS7003;6582;54.644;9.760;2022-08-21T01:10:03;65.4;54.4;
13030;PMS7003;6582;54.644;9.760;2022-08-21T01:15:02;64.5;53.8;
13030;PMS7003;6582;54.644;9.760;2022-08-21T01:20:03;64.4;53.8;
13030;PMS7003;6582;54.644;9.760;2022-08-21T01:25:03;64.3;54.0;
13030;PMS7003;6582;54.644;9.760;2022-08-21T01:30:11;64.2;53.9;
13030;PMS7003;6582;54.644;9.760;2022-08-21T01:35:02;65.4;54.8;
13030;PMS7003;6582;54.644;9.760;2022-08-21T01:40:01;66.6;55.8;
13030;PMS7003;6582;54.644;9.760;2022-08-21T01:45:01;67.4;56.1;
13030;PMS7003;6582;54.644;9.760;2022-08-21T01:50:03;67.7;56.2;
13030;PMS7003;6582;54.644;9.760;2022-08-21T01:55:02;68.6;56.8;
13030;PMS7003;6582;54.644;9.760;2022-08-21T02:00:02;68.2;56.6;
13030;PMS7003;6582;54.644;9.760;2022-08-21T02:05:02;67.6;56.1;
13030;PMS7003;6582;54.644;9.760;2022-08-21T02:10:01;66.8;55.7;
13030;PMS7003;6582;54.644;9.760;2022-08-21T02:15:02;66.0;55.3;
13030;PMS7003;6582;54.644;9.760;2022-08-21T02:20:01;66.3;55.5;
13030;PMS7003;6582;54.644;9.760;2022-08-21T02:25:01;66.8;55.6;
13030;PMS7003;6582;54.644;9.760;2022-08-21T02:30:01;68.1;56.5;
13030;PMS7003;6582;54.644;9.760;2022-08-21T02:35:01;69.2;57.3;
13030;PMS7003;6582;54.644;9.760;2022-08-21T02:40:02;70.3;58.1;
13030;PMS7003;6582;54.644;9.760;2022-08-21T02:45:01;70.1;58.2;
13030;PMS7003;6582;54.644;9.760;2022-08-21T02:50:01;69.3;57.8;
13030;PMS7003;6582;54.644;9.760;2022-08-21T02:55:01;68.3;57.1;
13030;PMS7003;6582;54.644;9.760;2022-08-21T03:00:02;67.3;56.4;
13030;PMS7003;6582;54.644;9.760;2022-08-21T03:05:01;70.7;59.2;
13030;PMS7003;6582;54.644;9.760;2022-08-21T03:10:01;69.8;58.6;
13030;PMS7003;6582;54.644;9.760;2022-08-21T03:15:03;71.2;59.5;
13030;PMS7003;6582;54.644;9.760;2022-08-21T03:20:02;71.6;59.7;
13030;PMS7003;6582;54.644;9.760;2022-08-21T03:25:18;72.7;60.4;
13030;PMS7003;6582;54.644;9.760;2022-08-21T03:30:03;70.0;58.0;
13030;PMS7003;6582;54.644;9.760;2022-08-21T03:35:02;70.8;58.4;
13030;PMS7003;6582;54.644;9.760;2022-08-21T03:40:08;71.1;58.7;
13030;PMS7003;6582;54.644;9.760;2022-08-21T03:45:11;72.4;59.3;
13030;PMS7003;6582;54.644;9.760;2022-08-21T03:50:06;72.2;59.1;
13030;PMS7003;6582;54.644;9.760;2022-08-21T03:55:06;71.0;58.4;
13030;PMS7003;6582;54.644;9.760;2022-08-21T04:00:06;70.8;58.2;
13030;PMS7003;6582;54.644;9.760;2022-08-21T04:05:12;69.9;57.6;
13030;PMS7003;6582;54.644;9.760;2022-08-21T04:10:06;69.1;57.4;
13030;PMS7003;6582;54.644;9.760;2022-08-21T04:15:01;69.2;57.6;
13030;PMS7003;6582;54.644;9.760;2022-08-21T04:20:03;70.3;58.4;
13030;PMS7003;6582;54.644;9.760;2022-08-21T04:25:06;71.0;59.1;
13030;PMS7003;6582;54.644;9.760;2022-08-21T04:30:07;71.7;59.6;
13030;PMS7003;6582;54.644;9.760;2022-08-21T04:35:06;72.3;59.9;
13030;PMS7003;6582;54.644;9.760;2022-08-21T04:40:03;71.6;59.3;
13030;PMS7003;6582;54.644;9.760;2022-08-21T04:45:06;70.7;58.6;
13030;PMS7003;6582;54.644;9.760;2022-08-21T04:50:16;70.1;58.0;
13030;PMS7003;6582;54.644;9.760;2022-08-21T04:55:06;69.6;57.7;
13030;PMS7003;6582;54.644;9.760;2022-08-21T05:00:11;70.2;58.4;
13030;PMS7003;6582;54.644;9.760;2022-08-21T05:05:11;70.7;58.8;
13030;PMS7003;6582;54.644;9.760;2022-08-21T05:10:06;70.9;58.8;
13030;PMS7003;6582;54.644;9.760;2022-08-21T05:15:12;70.4;58.5;
13030;PMS7003;6582;54.644;9.760;2022-08-21T05:20:07;71.1;58.8;
13030;PMS7003;6582;54.644;9.760;2022-08-21T05:25:08;69.8;57.7;
13030;PMS7003;6582;54.644;9.760;2022-08-21T05:30:02;69.3;57.4;
13030;PMS7003;6582;54.644;9.760;2022-08-21T05:35:07;67.7;56.3;
13030;PMS7003;6582;54.644;9.760;2022-08-21T05:40:16;67.0;55.7;
13030;PMS7003;6582;54.644;9.760;2022-08-21T05:45:08;72.5;59.9;
13030;PMS7003;6582;54.644;9.760;2022-08-21T05:50:06;71.5;58.7;
13030;PMS7003;6582;54.644;9.760;2022-08-21T05:55:03;71.1;57.8;
13030;PMS7003;6582;54.644;9.760;2022-08-21T06:00:08;70.9;57.7;
13030;PMS7003;6582;54.644;9.760;2022-08-21T06:05:03;70.6;57.2;
13030;PMS7003;6582;54.644;9.760;2022-08-21T06:10:03;62.4;51.2;
13030;PMS7003;6582;54.644;9.760;2022-08-21T06:15:08;61.6;50.8;
13030;PMS7003;6582;54.644;9.760;2022-08-21T06:20:06;60.7;50.6;
13030;PMS7003;6582;54.644;9.760;2022-08-21T06:25:03;61.8;51.0;
13030;PMS7003;6582;54.644;9.760;2022-08-21T06:30:12;60.3;50.0;
13030;PMS7003;6582;54.644;9.760;2022-08-21T06:35:03;59.8;49.5;
13030;PMS7003;6582;54.644;9.760;2022-08-21T06:40:03;60.0;49.7;
13030;PMS7003;6582;54.644;9.760;2022-08-21T06:45:02;59.8;49.5;
13030;PMS7003;6582;54.644;9.760;2022-08-21T06:50:06;58.2;48.4;
13030;PMS7003;6582;54.644;9.760;2022-08-21T06:55:12;59.2;49.3;
13030;PMS7003;6582;54.644;9.760;2022-08-21T07:00:06;59.8;49.8;
13030;PMS7003;6582;54.644;9.760;2022-08-21T07:05:01;59.7;49.8;
13030;PMS7003;6582;54.644;9.760;2022-08-21T07:10:22;60.2;50.0;
13030;PMS7003;6582;54.644;9.760;2022-08-21T07:15:01;60.7;50.6;
13030;PMS7003;6582;54.644;9.760;2022-08-21T07:20:02;61.2;50.8;
13030;PMS7003;6582;54.644;9.760;2022-08-21T07:25:03;62.2;51.6;
13030;PMS7003;6582;54.644;9.760;2022-08-21T07:30:03;62.4;51.7;
13030;PMS7003;6582;54.644;9.760;2022-08-21T07:35:06;62.9;52.1;
13030;PMS7003;6582;54.644;9.760;2022-08-21T07:40:03;63.8;52.6;
13030;PMS7003;6582;54.644;9.760;2022-08-21T07:45:06;63.6;52.5;
13030;PMS7003;6582;54.644;9.760;2022-08-21T07:50:01;63.8;52.8;
13030;PMS7003;6582;54.644;9.760;2022-08-21T07:55:08;64.0;52.8;
13030;PMS7003;6582;54.644;9.760;2022-08-21T08:00:07;64.3;53.3;
13030;PMS7003;6582;54.644;9.760;2022-08-21T08:05:04;63.9;52.9;
13030;PMS7003;6582;54.644;9.760;2022-08-21T08:10:02;63.7;52.8;
13030;PMS7003;6582;54.644;9.760;2022-08-21T08:35:02;60.0;49.8;
13030;PMS7003;6582;54.644;9.760;2022-08-21T08:40:26;60.5;50.1;
13030;PMS7003;6582;54.644;9.760;2022-08-21T08:45:05;61.0;50.4;
13030;PMS7003;6582;54.644;9.760;2022-08-21T09:05:01;61.0;50.6;
13030;PMS7003;6582;54.644;9.760;2022-08-21T09:25:12;64.0;52.6;
13030;PMS7003;6582;54.644;9.760;2022-08-21T09:30:07;63.6;52.3;
13030;PMS7003;6582;54.644;9.760;2022-08-21T09:35:05;62.3;51.5;
13030;PMS7003;6582;54.644;9.760;2022-08-21T09:40:15;62.7;51.6;
13030;PMS7003;6582;54.644;9.760;2022-08-21T09:45:07;62.8;51.7;
13030;PMS7003;6582;54.644;9.760;2022-08-21T09:50:08;62.2;51.3;
13030;PMS7003;6582;54.644;9.760;2022-08-21T09:55:02;62.5;51.7;
13030;PMS7003;6582;54.644;9.760;2022-08-21T10:00:15;64.0;53.4;
13030;PMS7003;6582;54.644;9.760;2022-08-21T10:05:08;64.5;54.7;
13030;PMS7003;6582;54.644;9.760;2022-08-21T10:10:06;64.9;55.3;
13030;PMS7003;6582;54.644;9.760;2022-08-21T10:15:13;65.9;56.4;
13030;PMS7003;6582;54.644;9.760;2022-08-21T10:20:07;65.8;56.3;
13030;PMS7003;6582;54.644;9.760;2022-08-21T10:25:21;66.0;56.6;
13030;PMS7003;6582;54.644;9.760;2022-08-21T10:30:11;65.6;55.5;
13030;PMS7003;6582;54.644;9.760;2022-08-21T10:35:09;66.1;56.1;
13030;PMS7003;6582;54.644;9.760;2022-08-21T10:40:10;66.0;56.0;
13030;PMS7003;6582;54.644;9.760;2022-08-21T10:45:09;66.1;56.2;
13030;PMS7003;6582;54.644;9.760;2022-08-21T10:50:10;65.6;55.5;
13030;PMS7003;6582;54.644;9.760;2022-08-21T10:55:14;66.2;56.5;
13030;PMS7003;6582;54.644;9.760;2022-08-21T11:00:05;66.4;57.0;
13030;PMS7003;6582;54.644;9.760;2022-08-21T11:05:05;66.1;56.6;
13030;PMS7003;6582;54.644;9.760;2022-08-21T11:10:10;66.3;57.1;
13030;PMS7003;6582;54.644;9.760;2022-08-21T11:15:05;66.3;57.0;
13030;PMS7003;6582;54.644;9.760;2022-08-21T11:20:10;66.6;57.4;
13030;PMS7003;6582;54.644;9.760;2022-08-21T11:25:06;66.0;56.4;
13030;PMS7003;6582;54.644;9.760;2022-08-21T11:30:06;66.8;57.4;
13030;PMS7003;6582;54.644;9.760;2022-08-21T11:35:08;67.2;58.0;
13030;PMS7003;6582;54.644;9.760;2022-08-21T11:40:05;67.3;58.0;
13030;PMS7003;6582;54.644;9.760;2022-08-21T12:25:06;66.0;56.2;
13030;PMS7003;6582;54.644;9.760;2022-08-21T12:30:18;66.1;56.7;
13030;PMS7003;6582;54.644;9.760;2022-08-21T12:35:05;65.7;56.2;
13030;PMS7003;6582;54.644;9.760;2022-08-21T12:40:04;65.4;55.6;
13030;PMS7003;6582;54.644;9.760;2022-08-21T12:45:04;65.8;56.0;
13030;PMS7003;6582;54.644;9.760;2022-08-21T12:50:05;65.6;55.7;
13030;PMS7003;6582;54.644;9.760;2022-08-21T12:55:07;65.0;54.6;
13030;PMS7003;6582;54.644;9.760;2022-08-21T13:00:04;63.8;53.4;
13030;PMS7003;6582;54.644;9.760;2022-08-21T13:05:08;63.1;52.7;
13030;PMS7003;6582;54.644;9.760;2022-08-21T13:10:14;62.2;51.5;
13030;PMS7003;6582;54.644;9.760;2022-08-21T13:15:12;61.8;51.0;
13030;PMS7003;6582;54.644;9.760;2022-08-21T13:25:13;61.1;50.5;
13030;PMS7003;6582;54.644;9.760;2022-08-21T13:35:11;61.4;50.5;
13030;PMS7003;6582;54.644;9.760;2022-08-21T13:40:09;61.5;50.5;
13030;PMS7003;6582;54.644;9.760;2022-08-21T13:45:01;63.9;53.0;
13030;PMS7003;6582;54.644;9.760;2022-08-21T13:50:01;63.5;52.4;
13030;PMS7003;6582;54.644;9.760;2022-08-21T13:55:12;62.9;51.9;
13030;PMS7003;6582;54.644;9.760;2022-08-21T14:00:16;63.1;52.2;
13030;PMS7003;6582;54.644;9.760;2022-08-21T14:05:01;62.8;51.9;
13030;PMS7003;6582;54.644;9.760;2022-08-21T14:10:08;59.1;48.7;
13030;PMS7003;6582;54.644;9.760;2022-08-21T14:15:07;58.5;48.5;
13030;PMS7003;6582;54.644;9.760;2022-08-21T14:25:14;58.1;48.1;
13030;PMS7003;6582;54.644;9.760;2022-08-21T14:30:09;58.7;48.5;
13030;PMS7003;6582;54.644;9.760;2022-08-21T14:35:02;59.4;48.9;
13030;PMS7003;6582;54.644;9.760;2022-08-21T14:45:13;61.0;50.2;
13030;PMS7003;6582;54.644;9.760;2022-08-21T14:50:01;62.6;51.8;
13030;PMS7003;6582;54.644;9.760;2022-08-21T14:55:02;64.3;53.6;
13030;PMS7003;6582;54.644;9.760;2022-08-21T15:00:07;64.7;54.4;
13030;PMS7003;6582;54.644;9.760;2022-08-21T15:05:02;65.6;55.3;
13030;PMS7003;6582;54.644;9.760;2022-08-21T15:10:10;65.4;54.8;
13030;PMS7003;6582;54.644;9.760;2022-08-21T15:15:06;64.9;54.2;
13030;PMS7003;6582;54.644;9.760;2022-08-21T15:20:07;64.7;54.0;
13030;PMS7003;6582;54.644;9.760;2022-08-21T15:25:06;64.6;53.6;
13030;PMS7003;6582;54.644;9.760;2022-08-21T15:35:01;64.8;53.9;
13030;PMS7003;6582;54.644;9.760;2022-08-21T15:40:02;64.4;53.8;
13030;PMS7003;6582;54.644;9.760;2022-08-21T15:45:02;64.7;54.2;
13030;PMS7003;6582;54.644;9.760;2022-08-21T15:50:02;64.6;53.9;
13030;PMS7003;6582;54.644;9.760;2022-08-21T15:55:01;65.0;54.6;
13030;PMS7003;6582;54.644;9.760;2022-08-21T16:00:04;64.6;54.2;
13030;PMS7003;6582;54.644;9.760;2022-08-21T16:05:06;64.5;54.0;
13030;PMS7003;6582;54.644;9.760;2022-08-21T16:15:07;63.8;53.3;
13030;PMS7003;6582;54.644;9.760;2022-08-21T16:20:08;63.3;52.8;
13030;PMS7003;6582;54.644;9.760;2022-08-21T16:25:14;65.3;54.2;
13030;PMS7003;6582;54.644;9.760;2022-08-21T16:30:03;65.3;54.0;
13030;PMS7003;6582;54.644;9.760;2022-08-21T16:35:02;66.0;54.7;
13030;PMS7003;6582;54.644;9.760;2022-08-21T16:40:02;65.6;54.4;
13030;PMS7003;6582;54.644;9.760;2022-08-21T16:45:02;64.8;53.7;
13030;PMS7003;6582;54.644;9.760;2022-08-21T16:50:07;61.4;50.7;
13030;PMS7003;6582;54.644;9.760;2022-08-21T16:55:02;60.7;50.1;
13030;PMS7003;6582;54.644;9.760;2022-08-21T17:00:07;59.6;49.2;
13030;PMS7003;6582;54.644;9.760;2022-08-21T17:05:01;60.1;49.8;
13030;PMS7003;6582;54.644;9.760;2022-08-21T17:10:02;61.4;51.0;
13030;PMS7003;6582;54.644;9.760;2022-08-21T17:15:08;62.5;51.9;
13030;PMS7003;6582;54.644;9.760;2022-08-21T17:25:06;62.3;51.8;
13030;PMS7003;6582;54.644;9.760;2022-08-21T17:30:06;62.5;51.8;
13030;PMS7003;6582;54.644;9.760;2022-08-21T17:35:06;62.0;51.3;
13030;PMS7003;6582;54.644;9.760;2022-08-21T17:40:02;60.9;50.3;
13030;PMS7003;6582;54.644;9.760;2022-08-21T17:45:01;59.9;49.4;
13030;PMS7003;6582;54.644;9.760;2022-08-21T17:50:03;59.6;49.1;
13030;PMS7003;6582;54.644;9.760;2022-08-21T17:55:03;58.4;48.2;
13030;PMS7003;6582;54.644;9.760;2022-08-21T18:00:08;57.5;47.5;
13030;PMS7003;6582;54.644;9.760;2022-08-21T18:05:07;56.5;46.8;
13030;PMS7003;6582;54.644;9.760;2022-08-21T18:15:07;54.8;45.6;
13030;PMS7003;6582;54.644;9.760;2022-08-21T18:20:06;53.1;44.4;
13030;PMS7003;6582;54.644;9.760;2022-08-21T18:25:11;51.4;43.3;
13030;PMS7003;6582;54.644;9.760;2022-08-21T18:30:02;50.2;42.4;
13030;PMS7003;6582;54.644;9.760;2022-08-21T18:35:02;48.3;41.0;
13030;PMS7003;6582;54.644;9.760;2022-08-21T18:45:02;46.7;40.0;
13030;PMS7003;6582;54.644;9.760;2022-08-21T18:50:03;44.8;38.8;
13030;PMS7003;6582;54.644;9.760;2022-08-21T18:55:28;42.8;37.5;
13030;PMS7003;6582;54.644;9.760;2022-08-21T19:00:04;41.1;36.4;
13030;PMS7003;6582;54.644;9.760;2022-08-21T19:05:07;42.1;37.2;
13030;PMS7003;6582;54.644;9.760;2022-08-21T19:10:16;41.5;36.6;
13030;PMS7003;6582;54.644;9.760;2022-08-21T19:15:12;42.2;37.0;
13030;PMS7003;6582;54.644;9.760;2022-08-21T19:20:05;43.5;37.6;
13030;PMS7003;6582;54.644;9.760;2022-08-21T19:25:03;43.6;37.8;
13030;PMS7003;6582;54.644;9.760;2022-08-21T19:35:02;42.7;37.0;
13030;PMS7003;6582;54.644;9.760;2022-08-21T19:40:02;42.3;36.9;
13030;PMS7003;6582;54.644;9.760;2022-08-21T19:45:02;41.9;36.6;
13030;PMS7003;6582;54.644;9.760;2022-08-21T19:50:21;46.4;40.8;
13030;PMS7003;6582;54.644;9.760;2022-08-21T19:55:06;46.0;40.6;
13030;PMS7003;6582;54.644;9.760;2022-08-21T20:00:07;45.4;40.3;
13030;PMS7003;6582;54.644;9.760;2022-08-21T20:05:09;46.0;40.8;
13030;PMS7003;6582;54.644;9.760;2022-08-21T20:10:02;46.8;41.0;
13030;PMS7003;6582;54.644;9.760;2022-08-21T20:15:01;42.7;37.4;
13030;PMS7003;6582;54.644;9.760;2022-08-21T20:20:12;43.3;37.7;
13030;PMS7003;6582;54.644;9.760;2022-08-21T20:30:03;44.2;38.4;
13030;PMS7003;6582;54.644;9.760;2022-08-21T20:35:02;44.6;38.7;
13030;PMS7003;6582;54.644;9.760;2022-08-21T20:45:08;45.3;39.3;
13030;PMS7003;6582;54.644;9.760;2022-08-21T20:50:20;46.4;40.1;
13030;PMS7003;6582;54.644;9.760;2022-08-21T20:55:09;47.2;40.7;
13030;PMS7003;6582;54.644;9.760;2022-08-21T21:00:08;47.9;41.2;
13030;PMS7003;6582;54.644;9.760;2022-08-21T21:05:11;48.6;41.8;
13030;PMS7003;6582;54.644;9.760;2022-08-21T21:10:10;47.9;41.4;
13030;PMS7003;6582;54.644;9.760;2022-08-21T21:15:11;48.0;41.4;
13030;PMS7003;6582;54.644;9.760;2022-08-21T21:20:14;46.8;40.6;
13030;PMS7003;6582;54.644;9.760;2022-08-21T21:25:09;47.1;40.6;
13030;PMS7003;6582;54.644;9.760;2022-08-21T21:30:06;47.2;40.6;
13030;PMS7003;6582;54.644;9.760;2022-08-21T21:35:03;47.5;40.9;
13030;PMS7003;6582;54.644;9.760;2022-08-21T22:05:05;47.2;40.8;
13030;PMS7003;6582;54.644;9.760;2022-08-21T22:10:35;47.7;41.2;
13030;PMS7003;6582;54.644;9.760;2022-08-21T22:15:11;49.7;42.7;
13030;PMS7003;6582;54.644;9.760;2022-08-21T22:20:14;49.5;42.6;
13030;PMS7003;6582;54.644;9.760;2022-08-21T22:25:04;49.8;42.7;
13030;PMS7003;6582;54.644;9.760;2022-08-21T22:30:02;52.0;44.5;
13030;PMS7003;6582;54.644;9.760;2022-08-21T22:35:13;53.3;45.6;
13030;PMS7003;6582;54.644;9.760;2022-08-21T22:40:12;54.3;46.4;
13030;PMS7003;6582;54.644;9.760;2022-08-21T22:45:03;54.9;46.8;
13030;PMS7003;6582;54.644;9.760;2022-08-21T22:50:18;55.6;47.4;
13030;PMS7003;6582;54.644;9.760;2022-08-21T22:55:03;55.0;46.9;
13030;PMS7003;6582;54.644;9.760;2022-08-21T23:00:08;56.1;47.6;
13030;PMS7003;6582;54.644;9.760;2022-08-21T23:05:17;56.2;47.7;
